createdAt,value
2023-05-05T00:00:39.859Z,5.35
2023-05-05T00:03:11.921Z,5.75
2023-05-05T00:05:45.448Z,6.07
2023-05-05T00:08:17.822Z,6.10
2023-05-05T00:10:51.600Z,4.72
2023-05-05T00:13:24.214Z,4.65
2023-05-05T00:15:56.256Z,5.40
2023-05-05T00:18:29.563Z,6.35
2023-05-05T00:21:04.407Z,12.73
2023-05-05T00:23:36.407Z,10.75
2023-05-05T00:26:08.344Z,16.88
2023-05-05T00:28:40.322Z,12.15
2023-05-05T00:31:12.285Z,10.77
2023-05-05T00:33:44.257Z,8.20
2023-05-05T00:36:17.894Z,7.47
2023-05-05T00:38:49.851Z,7.03
2023-05-05T00:41:21.864Z,6.97
2023-05-05T00:43:53.817Z,4.78
2023-05-05T00:46:28.178Z,4.82
2023-05-05T00:49:00.903Z,5.13
2023-05-05T00:51:34.564Z,4.85
2023-05-05T00:54:06.561Z,4.72
2023-05-05T00:56:38.582Z,4.35
2023-05-05T00:59:10.583Z,4.75
2023-05-05T01:01:43.967Z,4.28
2023-05-05T01:04:16.126Z,3.65
2023-05-05T01:07:02.097Z,4.05
2023-05-05T01:09:40.712Z,3.55
2023-05-05T01:12:24.748Z,3.60
2023-05-05T01:15:01.423Z,3.45
2023-05-05T01:17:42.065Z,3.55
2023-05-05T01:20:20.874Z,3.65
2023-05-05T01:23:01.493Z,3.78
2023-05-05T01:26:25.797Z,3.50
2023-05-05T01:29:15.392Z,3.75
2023-05-05T01:31:52.369Z,3.20
2023-05-05T01:34:27.592Z,3.38
2023-05-05T01:37:08.466Z,3.63
2023-05-05T01:39:43.106Z,3.42
2023-05-05T01:42:18.641Z,3.10
2023-05-05T01:44:53.165Z,4.05
2023-05-05T01:47:28.726Z,3.15
2023-05-05T01:50:01.903Z,3.53
2023-05-05T01:52:35.904Z,3.60
2023-05-05T01:55:09.510Z,10.20
2023-05-05T01:57:43.734Z,8.07
2023-05-05T02:00:19.481Z,7.05
2023-05-05T02:02:56.978Z,8.35
2023-05-05T02:05:30.365Z,9.48
2023-05-05T02:08:04.365Z,9.07
2023-05-05T02:10:38.754Z,8.02
2023-05-05T02:13:13.001Z,7.80
2023-05-05T02:15:45.899Z,7.03
2023-05-05T02:18:22.031Z,7.15
2023-05-05T02:20:55.673Z,7.13
2023-05-05T02:23:28.157Z,6.25
2023-05-05T02:26:04.813Z,6.82
2023-05-05T02:28:42.382Z,6.03
2023-05-05T02:31:16.514Z,5.40
2023-05-05T02:33:52.570Z,5.68
2023-05-05T02:36:29.132Z,4.97
2023-05-05T02:39:12.720Z,5.25
2023-05-05T02:44:29.098Z,4.55
2023-05-05T02:47:04.188Z,5.03
2023-05-05T02:49:38.684Z,5.25
2023-05-05T02:52:10.848Z,5.03
2023-05-05T02:54:45.040Z,5.18
2023-05-05T02:57:27.766Z,4.35
2023-05-05T03:00:09.596Z,4.63
2023-05-05T03:02:46.792Z,4.53
2023-05-05T03:05:25.258Z,3.90
2023-05-05T03:08:04.608Z,4.13
2023-05-05T03:10:46.470Z,4.03
2023-05-05T03:13:22.712Z,3.92
2023-05-05T03:15:56.302Z,4.00
2023-05-05T03:18:31.465Z,4.53
2023-05-05T03:21:08.908Z,3.45
2023-05-05T03:23:44.099Z,3.75
2023-05-05T03:26:23.368Z,4.68
2023-05-05T03:28:55.347Z,3.50
2023-05-05T03:31:32.439Z,3.67
2023-05-05T03:34:06.270Z,4.72
2023-05-05T03:36:45.713Z,4.50
2023-05-05T03:39:20.205Z,4.03
2023-05-05T03:41:53.586Z,6.25
2023-05-05T03:44:26.565Z,15.38
2023-05-05T03:46:58.545Z,11.10
2023-05-05T03:49:31.130Z,11.63
2023-05-05T03:52:05.304Z,13.05
2023-05-05T03:54:37.984Z,23.63
2023-05-05T03:57:09.920Z,17.45
2023-05-05T03:59:41.914Z,20.63
2023-05-05T04:02:16.033Z,26.80
2023-05-05T04:04:49.179Z,30.60
2023-05-05T04:07:23.660Z,23.83
2023-05-05T04:09:56.191Z,18.80
2023-05-05T04:12:28.172Z,17.67
2023-05-05T04:15:00.469Z,15.65
2023-05-05T04:17:32.580Z,18.85
2023-05-05T04:20:06.720Z,15.73
2023-05-05T04:22:40.470Z,14.90
2023-05-05T04:25:12.825Z,17.40
2023-05-05T04:27:44.867Z,21.35
2023-05-05T04:30:17.223Z,15.02
2023-05-05T04:32:49.246Z,11.25
2023-05-05T04:35:22.161Z,11.30
2023-05-05T04:37:55.727Z,11.85
2023-05-05T04:40:28.072Z,10.73
2023-05-05T04:43:02.085Z,10.60
2023-05-05T04:45:34.893Z,11.63
2023-05-05T04:48:06.934Z,10.48
2023-05-05T04:50:38.971Z,11.52
2023-05-05T04:53:12.315Z,10.88
2023-05-05T04:55:44.773Z,7.60
2023-05-05T04:58:16.878Z,6.32
2023-05-05T05:00:50.168Z,6.53
2023-05-05T05:03:24.985Z,5.88
2023-05-05T05:05:57.178Z,7.65
2023-05-05T05:08:30.515Z,5.97
2023-05-05T05:11:02.657Z,4.97
2023-05-05T05:13:34.672Z,2.72
2023-05-05T05:16:07.619Z,1.58
2023-05-05T05:18:39.645Z,1.05
2023-05-05T05:21:12.481Z,1.17
2023-05-05T05:23:45.777Z,1.00
2023-05-05T05:26:17.886Z,0.77
2023-05-05T05:28:50.129Z,1.23
2023-05-05T05:31:22.204Z,0.90
2023-05-05T05:33:54.398Z,0.93
2023-05-05T05:36:26.723Z,0.98
2023-05-05T05:39:00.195Z,0.90
2023-05-05T05:41:33.485Z,1.25
2023-05-05T05:44:05.621Z,1.35
2023-05-05T05:46:37.956Z,1.10
2023-05-05T05:49:10.777Z,0.75
2023-05-05T05:51:42.889Z,0.73
2023-05-05T05:54:16.285Z,0.55
2023-05-05T05:56:48.897Z,0.63
2023-05-05T05:59:21.510Z,0.60
2023-05-05T06:01:54.765Z,0.65
2023-05-05T06:04:26.836Z,2.10
2023-05-05T06:06:59.773Z,3.38
2023-05-05T06:09:33.456Z,1.08
2023-05-05T06:12:05.908Z,1.27
2023-05-05T06:14:38.018Z,0.30
2023-05-05T06:17:10.258Z,0.50
2023-05-05T06:19:43.384Z,0.40
2023-05-05T06:22:15.552Z,0.98
2023-05-05T06:24:50.048Z,0.63
2023-05-05T06:27:22.579Z,0.50
2023-05-05T06:29:54.483Z,0.30
2023-05-05T06:32:26.507Z,0.50
2023-05-05T06:34:58.460Z,0.80
2023-05-05T06:37:30.455Z,0.52
2023-05-05T06:40:04.266Z,0.80
2023-05-05T06:42:36.682Z,1.05
2023-05-05T06:45:12.859Z,0.77
2023-05-05T06:47:44.894Z,0.60
2023-05-05T06:50:17.008Z,0.60
2023-05-05T06:52:48.955Z,0.80
2023-05-05T06:55:23.574Z,0.70
2023-05-05T06:57:56.045Z,0.57
2023-05-05T07:00:28.074Z,0.45
2023-05-05T07:03:00.535Z,0.52
2023-05-05T07:05:32.750Z,0.32
2023-05-05T07:08:04.897Z,0.65
2023-05-05T07:10:38.267Z,0.57
2023-05-05T07:13:10.371Z,0.60
2023-05-05T07:15:48.174Z,0.68
2023-05-05T07:18:20.613Z,0.70
2023-05-05T07:20:52.598Z,0.75
2023-05-05T07:23:24.621Z,0.82
2023-05-05T07:25:58.121Z,0.63
2023-05-05T07:28:30.107Z,0.90
2023-05-05T07:31:02.143Z,0.50
2023-05-05T07:33:34.110Z,0.70
2023-05-05T07:36:06.351Z,1.13
2023-05-05T07:38:38.368Z,0.90
2023-05-05T07:41:13.021Z,1.35
2023-05-05T07:43:45.095Z,0.85
2023-05-05T07:46:17.928Z,2.00
2023-05-05T07:48:50.510Z,1.70
2023-05-05T07:51:22.699Z,0.77
2023-05-05T07:53:55.502Z,0.90
2023-05-05T07:56:28.859Z,1.30
2023-05-05T07:59:01.085Z,1.27
2023-05-05T08:01:33.292Z,1.38
2023-05-05T08:04:05.918Z,1.60
2023-05-05T08:06:38.781Z,0.63
2023-05-05T08:09:10.792Z,4.85
2023-05-05T08:11:44.146Z,3.88
2023-05-05T08:14:16.167Z,2.45
2023-05-05T08:16:48.114Z,3.42
2023-05-05T08:19:28.624Z,1.27
2023-05-05T08:22:01.758Z,1.33
2023-05-05T08:24:33.922Z,0.98
2023-05-05T08:27:07.248Z,2.47
2023-05-05T08:29:39.320Z,0.60
2023-05-05T08:32:11.458Z,1.65
2023-05-05T08:34:43.405Z,0.95
2023-05-05T08:37:15.645Z,1.00
2023-05-05T08:39:47.663Z,0.55
2023-05-05T08:42:33.297Z,0.60
2023-05-05T08:45:10.575Z,1.02
2023-05-05T08:47:43.628Z,0.68
2023-05-05T08:50:18.600Z,0.60
2023-05-05T08:52:57.927Z,0.80
2023-05-05T08:55:34.596Z,0.52
2023-05-05T08:58:08.864Z,0.95
2023-05-05T09:00:42.937Z,0.60
2023-05-05T09:03:16.308Z,2.03
2023-05-05T09:05:48.953Z,0.70
2023-05-05T09:08:21.412Z,0.70
2023-05-05T09:10:55.005Z,0.50
2023-05-05T09:13:29.629Z,0.70
2023-05-05T09:16:01.841Z,0.40
2023-05-05T09:18:33.761Z,0.75
2023-05-05T09:21:19.670Z,0.50
2023-05-05T09:24:08.700Z,0.63
2023-05-05T09:26:42.677Z,0.52
2023-05-05T09:29:19.997Z,0.80
2023-05-05T09:32:05.872Z,0.70
2023-05-05T09:34:38.117Z,0.45
2023-05-05T09:37:10.190Z,0.38
2023-05-05T09:39:53.878Z,0.57
2023-05-05T09:42:25.880Z,0.90
2023-05-05T09:45:00.054Z,1.63
2023-05-05T09:47:36.131Z,1.25
2023-05-05T09:50:11.353Z,1.13
2023-05-05T09:52:43.409Z,0.50
2023-05-05T09:55:18.199Z,0.60
2023-05-05T09:57:50.333Z,0.57
2023-05-05T10:00:38.027Z,0.60
2023-05-05T10:03:10.019Z,0.40
2023-05-05T10:05:52.675Z,0.70
2023-05-05T10:08:26.484Z,0.40
2023-05-05T10:11:00.920Z,0.30
2023-05-05T10:13:36.622Z,0.52
2023-05-05T10:16:13.265Z,0.50
2023-05-05T10:18:46.722Z,0.60
2023-05-05T10:21:21.780Z,0.50
2023-05-05T10:24:01.470Z,0.20
2023-05-05T10:26:39.015Z,0.75
2023-05-05T10:29:23.143Z,1.00
2023-05-05T10:32:14.026Z,2.22
2023-05-05T10:37:31.093Z,1.20
2023-05-05T10:40:04.257Z,1.27
2023-05-05T10:42:39.181Z,1.52
2023-05-05T10:45:11.464Z,0.63
2023-05-05T10:47:45.000Z,0.60
2023-05-05T10:50:26.925Z,0.73
2023-05-05T10:53:09.890Z,0.50
2023-05-05T10:55:46.742Z,0.70
2023-05-05T10:58:43.629Z,0.82
2023-05-05T11:01:32.126Z,0.57
2023-05-05T11:04:19.168Z,0.63
2023-05-05T11:07:22.493Z,0.45
2023-05-05T11:09:56.880Z,0.70
2023-05-05T11:12:29.442Z,0.43
2023-05-05T11:15:35.490Z,0.30
2023-05-05T11:18:08.382Z,0.93
2023-05-05T11:21:04.400Z,1.38
2023-05-05T11:23:36.526Z,2.35
2023-05-05T11:26:09.189Z,0.60
2023-05-05T11:28:59.121Z,0.50
2023-05-05T11:31:32.084Z,0.73
2023-05-05T11:34:25.193Z,0.73
2023-05-05T11:37:02.562Z,0.70
2023-05-05T11:39:48.490Z,2.15
2023-05-05T11:42:25.662Z,0.80
2023-05-05T11:44:58.017Z,1.00
2023-05-05T11:47:32.200Z,1.40
2023-05-05T11:50:18.971Z,0.63
2023-05-05T11:52:52.356Z,0.77
2023-05-05T11:55:24.333Z,0.50
2023-05-05T11:57:56.299Z,0.88
2023-05-05T12:00:34.622Z,0.85
2023-05-05T12:03:06.854Z,0.90
2023-05-05T12:05:39.014Z,1.02
2023-05-05T12:08:12.451Z,0.80
2023-05-05T12:10:44.516Z,0.95
2023-05-05T12:13:20.553Z,1.05
2023-05-05T12:15:52.741Z,1.00
2023-05-05T12:18:24.788Z,1.23
2023-05-05T12:20:56.845Z,0.68
2023-05-05T12:23:38.092Z,1.15
2023-05-05T12:26:24.942Z,0.82
2023-05-05T12:28:57.481Z,0.50
2023-05-05T12:31:36.316Z,0.60
2023-05-05T12:34:09.790Z,0.80
2023-05-05T12:36:42.421Z,1.00
2023-05-05T12:39:15.777Z,0.73
2023-05-05T12:41:48.105Z,1.10
2023-05-05T12:44:20.298Z,1.40
2023-05-05T12:46:54.488Z,1.08
2023-05-05T12:49:26.494Z,1.38
2023-05-05T12:51:58.535Z,0.82
2023-05-05T12:54:31.929Z,1.50
2023-05-05T12:57:11.565Z,1.17
2023-05-05T12:59:43.489Z,1.20
2023-05-05T13:02:16.449Z,2.60
2023-05-05T13:04:50.436Z,1.48
2023-05-05T13:07:22.601Z,0.57
2023-05-05T13:10:09.162Z,1.30
2023-05-05T13:12:41.245Z,0.77
2023-05-05T13:15:13.457Z,1.10
2023-05-05T13:17:45.496Z,1.48
2023-05-05T13:20:17.652Z,2.40
2023-05-05T13:22:49.682Z,2.88
2023-05-05T13:25:23.022Z,0.88
2023-05-05T13:27:54.981Z,1.00
2023-05-05T13:30:26.920Z,1.48
2023-05-05T13:32:58.965Z,1.20
2023-05-05T13:35:31.074Z,1.00
2023-05-05T13:38:03.049Z,1.15
2023-05-05T13:40:36.607Z,0.73
2023-05-05T13:43:08.622Z,0.55
2023-05-05T13:45:41.877Z,3.75
2023-05-05T13:48:20.889Z,1.38
2023-05-05T13:50:53.344Z,1.00
2023-05-05T13:53:25.395Z,1.48
2023-05-05T13:55:58.938Z,1.60
2023-05-05T13:58:31.016Z,0.70
2023-05-05T14:01:03.472Z,0.80
2023-05-05T14:03:35.511Z,0.90
2023-05-05T14:06:09.174Z,0.60
2023-05-05T14:08:41.652Z,1.00
2023-05-05T14:11:17.160Z,0.90
2023-05-05T14:13:49.770Z,0.80
2023-05-05T14:16:21.766Z,0.90
2023-05-05T14:18:54.131Z,0.60
2023-05-05T14:21:26.192Z,0.80
2023-05-05T14:23:58.282Z,0.60
2023-05-05T14:26:31.607Z,1.08
2023-05-05T14:29:04.031Z,0.73
2023-05-05T14:31:36.785Z,1.13
2023-05-05T14:34:08.753Z,0.70
2023-05-05T14:36:41.361Z,0.70
2023-05-05T14:39:13.424Z,0.70
2023-05-05T14:41:46.759Z,0.75
2023-05-05T14:44:19.225Z,0.88
2023-05-05T14:46:51.427Z,0.90
2023-05-05T14:49:23.473Z,1.27
2023-05-05T14:51:56.801Z,0.70
2023-05-05T14:54:29.267Z,0.70
2023-05-05T14:57:02.736Z,0.80
2023-05-05T14:59:34.766Z,0.75
2023-05-05T15:02:07.195Z,0.50
2023-05-05T15:04:39.236Z,0.63
2023-05-05T15:07:11.528Z,0.93
2023-05-05T15:09:43.512Z,1.58
2023-05-05T15:12:16.833Z,1.00
2023-05-05T15:14:48.818Z,0.90
2023-05-05T15:17:20.763Z,1.00
2023-05-05T15:19:52.878Z,0.70
2023-05-05T15:22:24.901Z,0.90
2023-05-05T15:24:56.888Z,1.13
2023-05-05T15:27:31.715Z,1.00
2023-05-05T15:30:04.770Z,0.82
2023-05-05T15:32:36.828Z,0.93
2023-05-05T15:35:09.366Z,0.60
2023-05-05T15:37:42.598Z,1.42
2023-05-05T15:40:14.767Z,0.57
2023-05-05T15:42:49.846Z,1.35
2023-05-05T15:45:21.801Z,0.75
2023-05-05T15:47:53.989Z,0.75
2023-05-05T15:50:26.083Z,0.57
2023-05-05T15:52:59.289Z,0.80
2023-05-05T15:55:31.284Z,0.88
2023-05-05T15:58:04.638Z,1.15
2023-05-05T16:00:36.722Z,0.85
2023-05-05T16:03:08.867Z,0.98
2023-05-05T16:05:41.811Z,1.00
2023-05-05T16:08:13.919Z,1.60
2023-05-05T16:10:45.992Z,1.30
2023-05-05T16:13:19.433Z,0.70
2023-05-05T16:15:51.420Z,1.27
2023-05-05T16:18:23.341Z,1.00
2023-05-05T16:20:55.321Z,0.73
2023-05-05T16:23:27.327Z,0.70
2023-05-05T16:25:59.316Z,0.85
2023-05-05T16:28:34.370Z,0.88
2023-05-05T16:31:06.466Z,1.02
2023-05-05T16:33:40.862Z,0.80
2023-05-05T16:36:13.142Z,1.10
2023-05-05T16:38:45.062Z,1.30
2023-05-05T16:41:17.114Z,1.55
2023-05-05T16:43:50.662Z,1.15
2023-05-05T16:46:22.720Z,3.40
2023-05-05T16:48:54.711Z,0.95
2023-05-05T16:51:28.962Z,2.38
2023-05-05T16:54:00.992Z,4.40
2023-05-05T16:56:32.917Z,8.68
2023-05-05T16:59:06.467Z,5.65
2023-05-05T17:01:38.670Z,2.13
2023-05-05T17:04:11.876Z,2.28
2023-05-05T17:06:43.954Z,1.52
2023-05-05T17:09:15.877Z,1.50
2023-05-05T17:11:47.833Z,1.13
2023-05-05T17:14:21.296Z,1.65
2023-05-05T17:16:54.455Z,1.58
2023-05-05T17:19:26.854Z,1.60
2023-05-05T17:21:58.844Z,0.93
2023-05-05T17:24:30.747Z,1.13
2023-05-05T17:27:02.727Z,1.40
2023-05-05T17:29:40.789Z,1.30
2023-05-05T17:32:12.970Z,1.58
2023-05-05T17:34:47.444Z,1.50
2023-05-05T17:37:20.056Z,1.90
2023-05-05T17:39:52.118Z,1.73
2023-05-05T17:42:27.164Z,2.38
2023-05-05T17:45:00.707Z,2.28
2023-05-05T17:47:32.715Z,1.58
2023-05-05T17:50:05.466Z,3.88
2023-05-05T17:52:37.422Z,3.55
2023-05-05T17:55:10.084Z,4.65
2023-05-05T17:57:42.344Z,37.53
2023-05-05T18:00:16.550Z,18.45
2023-05-05T18:02:48.633Z,14.25
2023-05-05T18:05:20.873Z,5.40
2023-05-05T18:07:52.844Z,3.47
2023-05-05T18:10:25.836Z,2.65
2023-05-05T18:12:57.801Z,2.63
2023-05-05T18:15:31.151Z,2.90
2023-05-05T18:18:03.183Z,35.75
2023-05-05T18:20:35.158Z,27.58
2023-05-05T18:23:07.175Z,6.63
2023-05-05T18:25:39.414Z,5.50
2023-05-05T18:28:11.538Z,4.57
2023-05-05T18:30:44.855Z,2.30
2023-05-05T18:33:16.915Z,1.83
2023-05-05T18:35:48.902Z,2.25
2023-05-05T18:38:21.563Z,1.85
2023-05-05T18:40:53.533Z,10.77
2023-05-05T18:43:25.527Z,3.03
2023-05-05T18:45:58.932Z,6.25
2023-05-05T18:48:31.066Z,3.58
2023-05-05T18:51:03.342Z,7.65
2023-05-05T18:53:35.781Z,13.63
2023-05-05T18:56:07.917Z,6.85
2023-05-05T18:58:40.154Z,4.03
2023-05-05T19:01:13.558Z,2.97
2023-05-05T19:03:47.831Z,7.13
2023-05-05T19:06:19.950Z,5.30
2023-05-05T19:08:51.992Z,3.08
2023-05-05T19:11:24.377Z,4.53
2023-05-05T19:13:56.413Z,3.35
2023-05-05T19:16:30.174Z,1.80
2023-05-05T19:19:02.502Z,1.60
2023-05-05T19:21:34.485Z,4.22
2023-05-05T19:24:08.112Z,2.10
2023-05-05T19:26:40.155Z,2.13
2023-05-05T19:29:12.511Z,2.13
2023-05-05T19:31:45.829Z,2.10
2023-05-05T19:34:17.800Z,10.05
2023-05-05T19:36:49.681Z,13.80
2023-05-05T19:39:21.699Z,13.77
2023-05-05T19:41:53.786Z,11.55
2023-05-05T19:44:25.788Z,9.90
2023-05-05T19:46:59.074Z,3.65
2023-05-05T19:49:31.040Z,1.40
2023-05-05T19:52:03.646Z,3.35
2023-05-05T19:54:36.212Z,4.60
2023-05-05T19:57:08.155Z,6.07
2023-05-05T19:59:40.275Z,6.80
2023-05-05T20:02:15.286Z,9.18
2023-05-05T20:04:47.363Z,9.88
2023-05-05T20:07:19.273Z,6.60
2023-05-05T20:09:51.219Z,6.68
2023-05-05T20:12:23.643Z,4.95
2023-05-05T20:14:55.619Z,3.67
2023-05-05T20:17:29.003Z,5.85
2023-05-05T20:20:00.953Z,13.02
2023-05-05T20:22:32.944Z,9.65
2023-05-05T20:25:05.579Z,11.13
2023-05-05T20:27:38.536Z,10.68
2023-05-05T20:30:12.225Z,8.65
2023-05-05T20:32:45.667Z,12.15
2023-05-05T20:35:17.684Z,8.35
2023-05-05T20:37:51.251Z,8.57
2023-05-05T20:40:23.288Z,7.90
2023-05-05T20:42:55.225Z,7.65
2023-05-05T20:45:27.197Z,6.20
2023-05-05T20:48:01.090Z,6.43
2023-05-05T20:50:32.998Z,5.97
2023-05-05T20:53:05.136Z,6.85
2023-05-05T20:55:37.394Z,4.75
2023-05-05T20:58:09.775Z,4.28
2023-05-05T21:00:41.808Z,3.10
2023-05-05T21:03:15.425Z,4.20
2023-05-05T21:05:47.412Z,3.45
2023-05-05T21:08:19.374Z,3.53
2023-05-05T21:10:51.326Z,3.15
2023-05-05T21:13:23.307Z,3.75
2023-05-05T21:15:55.292Z,2.88
2023-05-05T21:18:28.669Z,2.17
2023-05-05T21:21:00.630Z,4.68
2023-05-05T21:23:32.558Z,2.50
2023-05-05T21:26:04.755Z,1.85
2023-05-05T21:28:36.662Z,2.25
2023-05-05T21:33:46.218Z,2.58
2023-05-05T21:36:19.302Z,2.83
2023-05-05T21:38:51.280Z,3.60
2023-05-05T21:41:23.476Z,4.53
2023-05-05T21:43:55.791Z,4.60
2023-05-05T21:46:27.942Z,6.38
2023-05-05T21:49:11.896Z,4.78
2023-05-05T21:51:45.013Z,4.45
2023-05-05T21:54:16.985Z,6.53
2023-05-05T21:56:48.941Z,6.07
2023-05-05T21:59:21.018Z,6.35
2023-05-05T22:01:53.056Z,6.70
2023-05-05T22:04:26.482Z,7.13
2023-05-05T22:06:58.649Z,6.82
2023-05-05T22:09:30.620Z,5.50
2023-05-05T22:12:02.642Z,6.03
2023-05-05T22:14:34.724Z,4.97
2023-05-05T22:17:06.767Z,3.75
2023-05-05T22:19:40.316Z,4.50
2023-05-05T22:22:12.278Z,4.38
2023-05-05T22:24:44.172Z,4.00
2023-05-05T22:27:16.241Z,3.15
2023-05-05T22:29:48.214Z,3.38
2023-05-05T22:32:20.581Z,3.40
2023-05-05T22:34:53.887Z,2.35
2023-05-05T22:37:26.050Z,2.90
2023-05-05T22:39:57.973Z,2.33
2023-05-05T22:42:30.412Z,2.28
2023-05-05T22:45:02.369Z,2.28
2023-05-05T22:47:34.373Z,2.10
2023-05-05T22:50:08.992Z,1.45
2023-05-05T22:52:41.102Z,1.90
2023-05-05T22:55:14.629Z,1.35
2023-05-05T22:57:47.392Z,1.50
2023-05-05T23:00:19.544Z,2.13
2023-05-05T23:02:51.717Z,1.40
2023-05-05T23:05:25.251Z,1.77
2023-05-05T23:07:59.998Z,1.83
2023-05-05T23:10:32.016Z,1.73
2023-05-05T23:13:04.041Z,1.60
2023-05-05T23:15:36.466Z,1.23
2023-05-05T23:18:08.488Z,1.85
2023-05-05T23:20:41.804Z,1.52
2023-05-05T23:23:13.807Z,1.60
2023-05-05T23:25:45.735Z,1.42
2023-05-05T23:28:18.695Z,1.52
2023-05-05T23:30:50.695Z,1.45
2023-05-05T23:33:22.720Z,2.17
2023-05-05T23:35:56.027Z,1.60
2023-05-05T23:38:27.983Z,1.60
2023-05-05T23:40:59.939Z,1.92
2023-05-05T23:43:31.901Z,1.75
2023-05-05T23:46:03.866Z,2.00
2023-05-05T23:48:35.947Z,1.77
2023-05-05T23:51:09.276Z,1.65
2023-05-05T23:53:41.563Z,2.08
2023-05-05T23:56:13.602Z,2.13
2023-05-05T23:58:45.654Z,1.80
